»·PEaware :: UAL1399 KRDD-KMFR

UAL1399 :: KRDD-KMFR

FLIGHT INFORMATION

Flight Status: Arrived
Operator:
United Airlines
More flights by this operator :: More flights under this callsign
Pilot: David C. (16084)
Aircraft: SAAB 340
(SF34)
More flights by this aircraft type
Origin: KRDD Redding Mun
United States
Destination: KMFR Rogue Valley Intl-Medford
United States
More flights between these airports :: More routes between these airports
Route: +KREST3 SHATA V23 OED
File this flight plan on PilotEdge
Remarks:
Altitude:
(Current/Filed)
14,000ft
Speed:
(Current/Filed)
284kts
Departed: 17-Sep-18 05:39 PM
Arrived: 17-Sep-18 06:18 PM
Distance/Time
Traveled:
115nm/0:38
Distance/Time
To Go:
Arrived

Flight Plot

Page will automatically refresh every two minutes.

Flight plan parsing failed; only flown route is shown


Map Options




Map Legend


Flown Route
Filed Route
Departure Airport
Arrival Airport
Navaid (VOR, NDB)
Fix

Horizontal Profiles

Position Reports

Time Latitude Longitude Heading Altitude Ground
Speed
17-Sep-18 17:19 40.505859 -122.299037 315 508ft 0kts
17-Sep-18 17:20 40.505859 -122.299037 315 508ft 0kts
17-Sep-18 17:21 40.505859 -122.299037 315 508ft 0kts
17-Sep-18 17:22 40.505859 -122.299037 315 508ft 0kts
17-Sep-18 17:23 40.505859 -122.299037 315 508ft 0kts
17-Sep-18 17:24 40.505859 -122.299037 315 508ft 0kts
17-Sep-18 17:25 40.505859 -122.299037 315 508ft 0kts
17-Sep-18 17:26 40.505859 -122.299037 315 508ft 0kts
17-Sep-18 17:27 40.505859 -122.299037 315 508ft 0kts
17-Sep-18 17:28 40.505859 -122.299037 315 508ft 0kts
17-Sep-18 17:29 40.505859 -122.299037 315 508ft 0kts
17-Sep-18 17:30 40.505859 -122.299037 315 508ft 0kts
17-Sep-18 17:31 40.505859 -122.299037 315 508ft 0kts
17-Sep-18 17:32 40.505859 -122.299037 315 508ft 0kts
17-Sep-18 17:33 40.505859 -122.299037 315 508ft 0kts
17-Sep-18 17:34 40.505860 -122.299038 315 508ft 0kts
17-Sep-18 17:35 40.506059 -122.299147 0 508ft 4kts
17-Sep-18 17:36 40.509387 -122.296299 2 508ft 17kts
17-Sep-18 17:37 40.513594 -122.296292 0 508ft 18kts
17-Sep-18 17:38 40.519745 -122.296263 1 508ft 17kts
17-Sep-18 17:39 40.520142 -122.296062 46 508ft 0kts
17-Sep-18 17:40 40.520224 -122.295929 60 508ft 4kts
17-Sep-18 17:41 40.513682 -122.294875 180 508ft 98kts
17-Sep-18 17:42 40.484087 -122.269983 87 2150ft 176kts
17-Sep-18 17:43 40.523752 -122.250439 337 4069ft 189kts
17-Sep-18 17:44 40.573895 -122.273967 1 5763ft 199kts
17-Sep-18 17:45 40.627773 -122.255253 14 7358ft 203kts
17-Sep-18 17:46 40.679698 -122.246131 339 8721ft 205kts
17-Sep-18 17:47 40.703957 -122.304503 264 10148ft 191kts
17-Sep-18 17:48 40.694610 -122.373181 248 11412ft 192kts
17-Sep-18 17:49 40.671577 -122.436305 233 12573ft 192kts
17-Sep-18 17:50 40.657074 -122.501892 284 13621ft 205kts
17-Sep-18 17:51 40.704774 -122.545985 355 14003ft 245kts
17-Sep-18 17:52 40.775628 -122.550440 356 14002ft 263kts
17-Sep-18 17:53 40.849777 -122.554623 357 13998ft 269kts
17-Sep-18 17:54 40.921516 -122.580703 340 14001ft 269kts
17-Sep-18 17:55 40.992940 -122.611083 340 14008ft 269kts
17-Sep-18 17:56 41.063731 -122.641219 340 14032ft 267kts
17-Sep-18 17:57 41.132161 -122.670418 339 14052ft 264kts
17-Sep-18 17:58 41.201668 -122.700129 339 14053ft 262kts
17-Sep-18 17:59 41.270881 -122.729781 339 14054ft 262kts
17-Sep-18 18:00 41.340168 -122.759521 339 14054ft 262kts
17-Sep-18 18:01 41.409341 -122.789290 339 14054ft 262kts
17-Sep-18 18:02 41.482894 -122.809982 353 13268ft 285kts
17-Sep-18 18:03 41.563053 -122.818239 354 12184ft 290kts
17-Sep-18 18:04 41.639042 -122.825990 354 12004ft 261kts
17-Sep-18 18:05 41.709754 -122.833370 354 12007ft 252kts
17-Sep-18 18:06 41.779094 -122.840453 354 12008ft 249kts
17-Sep-18 18:07 41.848790 -122.843417 12 11079ft 250kts
17-Sep-18 18:08 41.903106 -122.788975 44 10065ft 246kts
17-Sep-18 18:09 41.950677 -122.723929 44 9064ft 243kts
17-Sep-18 18:10 41.997404 -122.659852 44 8157ft 238kts
17-Sep-18 18:11 42.048483 -122.606402 21 7267ft 234kts
17-Sep-18 18:12 42.111270 -122.597272 348 6383ft 230kts
17-Sep-18 18:13 42.166190 -122.633755 316 5409ft 216kts
17-Sep-18 18:14 42.205704 -122.692411 310 4507ft 208kts
17-Sep-18 18:15 42.239497 -122.754101 300 3610ft 203kts
17-Sep-18 18:16 42.268330 -122.806287 315 2722ft 165kts
17-Sep-18 18:17 42.303929 -122.836163 335 2568ft 151kts
17-Sep-18 18:18 42.338546 -122.854231 335 1896ft 127kts
17-Sep-18 18:19 42.369945 -122.870738 335 1338ft 90kts
17-Sep-18 18:20 42.376101 -122.875056 230 1338ft 8kts
17-Sep-18 18:21 42.370527 -122.872560 158 1338ft 22kts
17-Sep-18 18:22 42.368770 -122.873275 239 1338ft 0kts
17-Sep-18 18:23 42.368770 -122.873275 239 1338ft 0kts
17-Sep-18 18:24 42.368770 -122.873275 239 1338ft 0kts

Navigation Log

Ident Type
Flight plan parsing failed, navigation log unavailable